Terminal Aerodrome Forecast
Issued by NWS Quad Cities IA IL

Home | Current Version | Previous Version | Text Only | Print | Product List | Glossary On
Versions: 1 2 3 4 5 6 7 8 9 10 11 12 13 14 15 16 17 18 19 20 21 22 23 24 25 26 27 28 29 30 31 32 33 34 35
058
FTUS43 KDVN 200612 CCA
TAFDBQ
TAF COR
KDBQ 200612Z 2006/2106 35003KT P6SM SKC
     FM200800 00000KT 3SM BR FEW002
     FM201000 VRB02KT 3/4SM MIFG SCT002
     FM201400 VRB03KT 6SM BR SCT250
     FM201500 09004KT P6SM SCT250=

USA.gov is the U.S. government's official web portal to all federal, state and local government web resources and services.